createdAt,value
2017-07-26T00:01:35.733Z,2.95
2017-07-26T00:04:04.752Z,2.50
2017-07-26T00:06:33.749Z,2.65
2017-07-26T00:09:02.797Z,3.08
2017-07-26T00:11:31.803Z,2.47
2017-07-26T00:14:00.797Z,2.80
2017-07-26T00:16:29.805Z,2.60
2017-07-26T00:18:58.825Z,3.05
2017-07-26T00:21:27.849Z,3.28
2017-07-26T00:23:56.862Z,2.67
2017-07-26T00:26:25.873Z,3.50
2017-07-26T00:28:54.894Z,2.72
2017-07-26T00:31:23.905Z,2.55
2017-07-26T00:33:53.674Z,3.00
2017-07-26T00:36:22.724Z,3.15
2017-07-26T00:38:52.496Z,2.90
2017-07-26T00:41:21.509Z,2.97
2017-07-26T00:43:50.525Z,3.20
2017-07-26T00:46:20.306Z,2.67
2017-07-26T00:48:49.326Z,3.37
2017-07-26T00:51:19.101Z,2.80
2017-07-26T00:53:48.121Z,2.62
2017-07-26T00:56:17.841Z,2.80
2017-07-26T00:58:47.648Z,2.80
2017-07-26T01:01:33.193Z,2.95
2017-07-26T01:04:02.214Z,2.30
2017-07-26T01:06:31.208Z,2.37
2017-07-26T01:09:00.206Z,2.25
2017-07-26T01:11:29.204Z,2.60
2017-07-26T01:13:58.213Z,2.12
2017-07-26T01:16:27.214Z,2.50
2017-07-26T01:18:56.200Z,2.60
2017-07-26T01:21:25.218Z,2.33
2017-07-26T01:23:54.229Z,2.47
2017-07-26T01:26:23.239Z,2.53
2017-07-26T01:28:52.227Z,3.70
2017-07-26T01:31:21.248Z,2.30
2017-07-26T01:33:50.997Z,2.20
2017-07-26T01:36:20.029Z,2.25
2017-07-26T01:38:49.037Z,2.08
2017-07-26T01:41:18.024Z,1.95
2017-07-26T01:43:47.030Z,2.00
2017-07-26T01:46:16.023Z,2.50
2017-07-26T01:48:45.047Z,2.67
2017-07-26T01:51:14.053Z,2.80
2017-07-26T01:53:43.049Z,2.37
2017-07-26T01:56:12.270Z,2.10
2017-07-26T01:58:41.272Z,2.60
2017-07-26T02:01:10.263Z,2.67
2017-07-26T02:03:39.268Z,2.50
2017-07-26T02:06:08.260Z,2.20
2017-07-26T02:08:37.281Z,2.25
2017-07-26T02:11:06.994Z,1.98
2017-07-26T02:13:36.022Z,3.05
2017-07-26T02:16:05.017Z,2.17
2017-07-26T02:18:34.032Z,2.55
2017-07-26T02:21:03.032Z,2.15
2017-07-26T02:23:32.681Z,2.65
2017-07-26T02:26:01.689Z,2.78
2017-07-26T02:28:30.687Z,2.67
2017-07-26T02:30:59.696Z,2.95
2017-07-26T02:33:28.680Z,3.00
2017-07-26T02:35:57.703Z,3.08
2017-07-26T02:38:26.706Z,3.80
2017-07-26T02:40:55.712Z,4.25
2017-07-26T02:43:24.726Z,3.75
2017-07-26T02:45:53.741Z,4.25
2017-07-26T02:48:22.729Z,4.28
2017-07-26T02:50:51.758Z,4.12
2017-07-26T02:53:20.869Z,3.90
2017-07-26T02:55:49.918Z,3.25
2017-07-26T02:58:18.933Z,4.10
2017-07-26T03:00:47.925Z,3.53
2017-07-26T03:03:16.933Z,3.30
2017-07-26T03:05:45.936Z,3.40
2017-07-26T03:08:14.949Z,3.53
2017-07-26T03:10:43.950Z,3.67
2017-07-26T03:13:12.954Z,4.22
2017-07-26T03:15:42.037Z,3.80
2017-07-26T03:18:11.052Z,4.45
2017-07-26T03:20:40.041Z,4.37
2017-07-26T03:23:09.085Z,4.68
2017-07-26T03:25:38.075Z,4.00
2017-07-26T03:28:07.064Z,5.03
2017-07-26T03:30:36.084Z,6.50
2017-07-26T03:33:05.093Z,5.00
2017-07-26T03:35:34.153Z,4.78
2017-07-26T03:38:03.146Z,4.87
2017-07-26T03:40:32.144Z,5.40
2017-07-26T03:43:02.217Z,5.12
2017-07-26T03:45:31.232Z,5.75
2017-07-26T03:48:00.220Z,5.37
2017-07-26T03:50:29.432Z,5.05
2017-07-26T03:52:58.432Z,5.35
2017-07-26T03:55:27.424Z,5.10
2017-07-26T03:57:56.443Z,4.40
2017-07-26T04:00:25.432Z,5.25
2017-07-26T04:02:54.475Z,5.82
2017-07-26T04:05:24.229Z,5.07
2017-07-26T04:07:53.289Z,6.37
2017-07-26T04:10:22.298Z,6.18
2017-07-26T04:12:51.305Z,6.47
2017-07-26T04:15:20.300Z,6.57
2017-07-26T04:17:49.307Z,7.00
2017-07-26T04:20:18.296Z,6.72
2017-07-26T04:22:47.294Z,6.30
2017-07-26T04:25:16.295Z,8.55
2017-07-26T04:27:45.292Z,7.40
2017-07-26T04:30:14.323Z,7.40
2017-07-26T04:32:44.081Z,7.85
2017-07-26T04:35:13.093Z,7.45
2017-07-26T04:37:42.096Z,6.80
2017-07-26T04:40:11.113Z,7.70
2017-07-26T04:42:40.860Z,6.80
2017-07-26T04:45:10.823Z,7.05
2017-07-26T04:47:40.765Z,6.60
2017-07-26T04:50:09.807Z,7.72
2017-07-26T04:52:38.882Z,8.50
2017-07-26T04:55:07.869Z,7.75
2017-07-26T04:57:36.884Z,6.82
2017-07-26T05:00:05.877Z,8.05
2017-07-26T05:02:34.985Z,7.35
2017-07-26T05:05:03.988Z,7.22
2017-07-26T05:07:32.997Z,8.48
2017-07-26T05:10:02.049Z,8.70
2017-07-26T05:12:31.057Z,8.10
2017-07-26T05:15:00.061Z,8.10
2017-07-26T05:17:29.049Z,8.40
2017-07-26T05:19:58.101Z,9.30
2017-07-26T05:22:27.093Z,9.27
2017-07-26T05:24:56.228Z,10.55
2017-07-26T05:27:25.244Z,9.27
2017-07-26T05:29:54.238Z,8.48
2017-07-26T05:32:23.259Z,9.50
2017-07-26T05:34:52.256Z,8.73
2017-07-26T05:37:21.257Z,8.38
2017-07-26T05:39:50.276Z,8.23
2017-07-26T05:42:19.269Z,8.75
2017-07-26T05:44:48.260Z,9.25
2017-07-26T05:47:17.292Z,8.15
2017-07-26T05:49:47.091Z,8.23
2017-07-26T05:52:16.116Z,10.18
2017-07-26T05:54:45.110Z,8.40
2017-07-26T05:57:14.126Z,9.02
2017-07-26T05:59:43.884Z,8.40
2017-07-26T06:02:13.759Z,9.25
2017-07-26T06:04:42.758Z,9.70
2017-07-26T06:07:11.770Z,9.00
2017-07-26T06:09:40.770Z,9.40
2017-07-26T06:12:09.800Z,8.70
2017-07-26T06:14:39.180Z,9.15
2017-07-26T06:17:08.191Z,9.85
2017-07-26T06:19:39.168Z,9.60
2017-07-26T06:22:08.164Z,9.95
2017-07-26T06:24:37.603Z,9.82
2017-07-26T06:27:06.915Z,10.13
2017-07-26T06:29:36.254Z,9.70
2017-07-26T06:32:05.556Z,8.73
2017-07-26T06:34:35.655Z,9.75
2017-07-26T06:37:11.984Z,8.90
2017-07-26T06:39:41.316Z,8.90
2017-07-26T06:42:22.352Z,9.82
2017-07-26T06:44:51.718Z,7.85
2017-07-26T06:47:21.816Z,9.45
2017-07-26T06:49:51.160Z,8.30
2017-07-26T06:52:20.521Z,9.98
2017-07-26T06:54:49.860Z,8.20
2017-07-26T06:57:19.220Z,10.70
2017-07-26T06:59:48.546Z,9.70
2017-07-26T07:02:17.969Z,10.20
2017-07-26T07:04:47.337Z,10.65
2017-07-26T07:07:16.666Z,9.85
2017-07-26T07:09:45.978Z,10.68
2017-07-26T07:12:15.313Z,10.73
2017-07-26T07:14:44.633Z,10.38
2017-07-26T07:17:13.964Z,10.45
2017-07-26T07:20:10.884Z,9.10
2017-07-26T07:22:40.220Z,9.65
2017-07-26T07:25:10.361Z,9.82
2017-07-26T07:27:39.685Z,9.98
2017-07-26T07:30:09.072Z,9.55
2017-07-26T07:32:38.397Z,6.57
2017-07-26T07:35:07.703Z,7.05
2017-07-26T07:37:37.057Z,7.05
2017-07-26T07:40:06.398Z,6.57
2017-07-26T07:42:35.704Z,6.30
2017-07-26T07:45:05.028Z,7.82
2017-07-26T07:47:34.333Z,5.62
2017-07-26T07:50:03.659Z,6.87
2017-07-26T07:52:33.751Z,6.28
2017-07-26T07:55:03.080Z,8.13
2017-07-26T07:57:32.396Z,7.30
2017-07-26T08:00:01.728Z,7.32
2017-07-26T08:02:31.049Z,8.32
2017-07-26T08:05:00.388Z,7.62
2017-07-26T08:07:29.697Z,9.05
2017-07-26T08:09:59.030Z,8.40
2017-07-26T08:12:28.404Z,8.38
2017-07-26T08:14:57.729Z,8.02
2017-07-26T08:17:27.061Z,7.78
2017-07-26T08:19:56.404Z,7.85
2017-07-26T08:22:25.776Z,9.00
2017-07-26T08:24:55.113Z,8.38
2017-07-26T08:27:24.425Z,8.43
2017-07-26T08:29:53.749Z,9.05
2017-07-26T08:32:23.069Z,9.57
2017-07-26T08:34:52.406Z,9.70
2017-07-26T08:37:21.740Z,9.38
2017-07-26T08:39:51.041Z,8.85
2017-07-26T08:42:20.382Z,8.52
2017-07-26T08:44:49.696Z,8.73
2017-07-26T08:47:19.024Z,7.82
2017-07-26T08:49:48.336Z,8.57
2017-07-26T08:52:17.662Z,8.60
2017-07-26T08:54:46.984Z,7.90
2017-07-26T08:57:16.306Z,8.70
2017-07-26T08:59:46.393Z,8.70
2017-07-26T09:02:15.731Z,8.48
2017-07-26T09:04:45.816Z,9.38
2017-07-26T09:07:15.141Z,8.73
2017-07-26T09:09:45.224Z,8.80
2017-07-26T09:12:14.621Z,9.57
2017-07-26T09:14:43.962Z,9.70
2017-07-26T09:17:14.272Z,9.10
2017-07-26T09:19:43.597Z,9.40
2017-07-26T09:22:13.721Z,9.20
2017-07-26T09:24:43.040Z,9.40
2017-07-26T09:27:12.391Z,8.55
2017-07-26T09:29:41.696Z,9.23
2017-07-26T09:32:11.053Z,9.15
2017-07-26T09:34:40.365Z,9.02
2017-07-26T09:37:09.673Z,9.70
2017-07-26T09:39:39.004Z,8.98
2017-07-26T09:42:08.335Z,8.52
2017-07-26T09:44:38.425Z,8.13
2017-07-26T09:47:07.737Z,9.68
2017-07-26T09:49:37.847Z,8.25
2017-07-26T09:52:07.172Z,9.00
2017-07-26T09:54:37.305Z,9.10
2017-07-26T09:57:07.373Z,9.60
2017-07-26T09:59:36.696Z,9.55
2017-07-26T10:02:06.006Z,9.40
2017-07-26T10:04:35.354Z,9.25
2017-07-26T10:07:04.665Z,9.23
2017-07-26T10:09:33.997Z,8.23
2017-07-26T10:12:03.320Z,9.18
2017-07-26T10:14:32.637Z,8.40
2017-07-26T10:17:01.965Z,9.15
2017-07-26T10:19:31.284Z,8.15
2017-07-26T10:22:00.714Z,8.05
2017-07-26T10:24:30.024Z,9.10
2017-07-26T10:26:59.345Z,9.05
2017-07-26T10:29:34.364Z,37.42
2017-07-26T10:32:04.462Z,9.13
2017-07-26T10:34:34.581Z,8.85
2017-07-26T10:37:03.912Z,8.50
2017-07-26T10:39:34.193Z,10.43
2017-07-26T10:42:06.801Z,8.63
2017-07-26T10:44:36.131Z,7.95
2017-07-26T10:47:06.253Z,8.65
2017-07-26T10:49:35.580Z,8.00
2017-07-26T10:52:04.904Z,8.40
2017-07-26T10:54:34.534Z,8.10
2017-07-26T10:57:05.426Z,8.43
2017-07-26T10:59:34.725Z,8.80
2017-07-26T11:02:04.058Z,9.00
2017-07-26T11:04:33.367Z,7.75
2017-07-26T11:07:02.705Z,8.00
2017-07-26T11:09:32.789Z,8.70
2017-07-26T11:12:02.125Z,8.07
2017-07-26T11:14:32.185Z,8.15
2017-07-26T11:17:02.046Z,8.32
2017-07-26T11:19:31.621Z,8.73
2017-07-26T11:22:01.005Z,7.45
2017-07-26T11:24:30.309Z,7.12
2017-07-26T11:26:59.632Z,8.27
2017-07-26T11:29:29.042Z,6.70
2017-07-26T11:31:58.370Z,7.10
2017-07-26T11:34:27.680Z,7.95
2017-07-26T11:36:58.321Z,6.30
2017-07-26T11:39:27.754Z,8.10
2017-07-26T11:41:58.357Z,8.10
2017-07-26T11:44:27.710Z,7.20
2017-07-26T11:46:57.025Z,8.07
2017-07-26T11:49:26.358Z,7.45
2017-07-26T11:51:55.666Z,8.32
2017-07-26T11:54:24.991Z,7.30
2017-07-26T11:56:54.300Z,7.30
2017-07-26T11:59:23.633Z,8.55
2017-07-26T12:01:53.745Z,8.23
2017-07-26T12:04:23.523Z,8.35
2017-07-26T12:06:52.853Z,8.45
2017-07-26T12:09:22.207Z,8.65
2017-07-26T12:11:51.528Z,8.55
2017-07-26T12:14:20.969Z,8.23
2017-07-26T12:16:50.286Z,7.55
2017-07-26T12:19:19.620Z,7.72
2017-07-26T12:21:48.978Z,8.98
2017-07-26T12:24:18.431Z,7.70
2017-07-26T12:26:47.728Z,8.38
2017-07-26T12:29:17.148Z,7.37
2017-07-26T12:31:46.475Z,8.15
2017-07-26T12:34:16.099Z,8.23
2017-07-26T12:36:47.360Z,8.23
2017-07-26T12:39:17.443Z,7.70
2017-07-26T12:41:46.773Z,8.55
2017-07-26T12:44:16.156Z,8.13
2017-07-26T12:46:45.525Z,7.00
2017-07-26T12:49:15.316Z,5.90
2017-07-26T12:51:44.733Z,6.68
2017-07-26T12:54:14.710Z,6.15
2017-07-26T12:56:44.032Z,7.10
2017-07-26T12:59:13.437Z,7.87
2017-07-26T13:01:42.829Z,6.30
2017-07-26T13:04:12.178Z,7.03
2017-07-26T13:06:41.524Z,6.95
2017-07-26T13:09:10.955Z,6.85
2017-07-26T13:11:40.301Z,6.82
2017-07-26T13:14:09.618Z,6.50
2017-07-26T13:16:38.965Z,7.00
2017-07-26T13:19:08.272Z,6.47
2017-07-26T13:21:37.597Z,7.47
2017-07-26T13:24:06.913Z,7.20
2017-07-26T13:26:37.384Z,6.45
2017-07-26T13:29:06.756Z,6.93
2017-07-26T13:31:36.074Z,6.82
2017-07-26T13:34:06.165Z,6.62
2017-07-26T13:36:35.489Z,6.57
2017-07-26T13:39:04.857Z,7.00
2017-07-26T13:41:34.193Z,7.03
2017-07-26T13:44:03.512Z,6.70
2017-07-26T13:46:32.838Z,6.62
2017-07-26T13:49:02.170Z,7.82
2017-07-26T13:51:31.541Z,7.15
2017-07-26T13:54:00.958Z,6.75
2017-07-26T13:56:30.319Z,6.62
2017-07-26T13:59:00.396Z,6.90
2017-07-26T14:01:29.717Z,6.47
2017-07-26T14:03:59.038Z,7.20
2017-07-26T14:06:28.344Z,6.95
2017-07-26T14:08:57.692Z,7.15
2017-07-26T14:11:27.018Z,7.55
2017-07-26T14:13:56.358Z,7.75
2017-07-26T14:16:26.760Z,7.65
2017-07-26T14:18:56.095Z,7.45
2017-07-26T14:21:25.396Z,6.95
2017-07-26T14:23:54.740Z,6.00
2017-07-26T14:26:24.170Z,6.18
2017-07-26T14:28:53.620Z,6.32
2017-07-26T14:31:22.964Z,5.85
2017-07-26T14:33:52.272Z,6.05
2017-07-26T14:36:21.648Z,5.78
2017-07-26T14:38:51.028Z,5.72
2017-07-26T14:41:20.387Z,5.15
2017-07-26T14:43:49.690Z,5.03
2017-07-26T14:46:19.141Z,5.00
2017-07-26T14:48:48.508Z,4.62
2017-07-26T14:51:17.822Z,5.05
2017-07-26T14:53:47.160Z,5.10
2017-07-26T14:56:16.900Z,4.53
2017-07-26T14:58:46.201Z,3.75
2017-07-26T15:01:15.529Z,4.20
2017-07-26T15:03:45.627Z,4.30
2017-07-26T15:06:14.946Z,4.05
2017-07-26T15:08:44.275Z,3.45
2017-07-26T15:11:13.603Z,4.28
2017-07-26T15:13:42.905Z,4.10
2017-07-26T15:16:12.245Z,4.30
2017-07-26T15:18:42.325Z,3.95
2017-07-26T15:21:11.672Z,4.22
2017-07-26T15:23:41.753Z,4.57
2017-07-26T15:26:11.283Z,4.22
2017-07-26T15:28:40.689Z,3.65
2017-07-26T15:31:11.756Z,3.97
2017-07-26T15:33:41.080Z,4.40
2017-07-26T15:36:10.381Z,3.67
2017-07-26T15:38:39.722Z,3.37
2017-07-26T15:41:09.091Z,4.10
2017-07-26T15:43:38.413Z,3.87
2017-07-26T15:46:07.727Z,3.90
2017-07-26T15:48:37.058Z,4.20
2017-07-26T15:51:06.400Z,3.90
2017-07-26T15:53:35.766Z,3.72
2017-07-26T15:56:05.099Z,3.50
2017-07-26T15:58:34.514Z,3.83
2017-07-26T16:01:03.852Z,3.78
2017-07-26T16:03:33.183Z,3.80
2017-07-26T16:06:02.513Z,3.35
2017-07-26T16:08:31.829Z,3.33
2017-07-26T16:11:01.139Z,3.67
2017-07-26T16:13:30.485Z,3.35
2017-07-26T16:15:59.793Z,3.47
2017-07-26T16:18:29.156Z,4.18
2017-07-26T16:20:58.476Z,3.20
2017-07-26T16:23:28.574Z,3.37
2017-07-26T16:25:57.923Z,3.87
2017-07-26T16:28:27.239Z,3.50
2017-07-26T16:30:56.576Z,3.37
2017-07-26T16:33:25.860Z,3.50
2017-07-26T16:35:55.191Z,2.90
2017-07-26T16:38:24.522Z,3.05
2017-07-26T16:40:53.900Z,3.05
2017-07-26T16:43:23.243Z,3.25
2017-07-26T16:45:53.492Z,3.12
2017-07-26T16:48:22.843Z,3.35
2017-07-26T16:50:53.700Z,3.35
2017-07-26T16:53:25.430Z,3.08
2017-07-26T16:55:55.549Z,3.55
2017-07-26T16:58:24.904Z,2.62
2017-07-26T17:00:54.258Z,3.20
2017-07-26T17:03:24.332Z,3.47
2017-07-26T17:05:53.688Z,3.20
2017-07-26T17:08:22.997Z,3.90
2017-07-26T17:10:52.520Z,2.90
2017-07-26T17:13:21.824Z,3.60
2017-07-26T17:15:51.199Z,3.20
2017-07-26T17:18:20.577Z,3.53
2017-07-26T17:20:49.986Z,3.25
2017-07-26T17:23:19.305Z,4.05
2017-07-26T17:25:48.615Z,2.95
2017-07-26T17:28:17.928Z,3.00
2017-07-26T17:30:47.235Z,2.97
2017-07-26T17:33:16.558Z,3.55
2017-07-26T17:35:45.875Z,2.50
2017-07-26T17:38:15.206Z,3.00
2017-07-26T17:40:45.295Z,3.08
2017-07-26T17:43:14.633Z,2.40
2017-07-26T17:45:43.948Z,3.30
2017-07-26T17:48:13.269Z,3.17
2017-07-26T17:50:43.353Z,3.28
2017-07-26T17:53:12.685Z,3.10
2017-07-26T17:55:42.769Z,2.90
2017-07-26T17:58:12.096Z,2.90
2017-07-26T18:00:42.183Z,2.90
2017-07-26T18:03:11.533Z,3.58
2017-07-26T18:05:41.629Z,2.60
2017-07-26T18:11:00.356Z,3.00
2017-07-26T18:13:29.682Z,3.30
2017-07-26T18:15:58.989Z,3.40
2017-07-26T18:18:28.325Z,3.08
2017-07-26T18:20:58.385Z,2.97
2017-07-26T18:23:27.791Z,3.10
2017-07-26T18:25:57.197Z,3.35
2017-07-26T18:28:26.511Z,3.05
2017-07-26T18:30:55.832Z,3.05
2017-07-26T18:33:25.186Z,2.92
2017-07-26T18:35:54.524Z,3.22
2017-07-26T18:38:23.861Z,2.83
2017-07-26T18:40:53.195Z,2.97
2017-07-26T18:43:22.522Z,3.37
2017-07-26T18:45:52.664Z,3.62
2017-07-26T18:48:22.041Z,3.97
2017-07-26T18:50:51.374Z,3.53
2017-07-26T18:53:20.685Z,3.83
2017-07-26T18:55:50.817Z,3.78
2017-07-26T18:58:20.921Z,3.20
2017-07-26T19:00:50.250Z,3.70
2017-07-26T19:03:19.588Z,3.83
2017-07-26T19:05:48.980Z,3.85
2017-07-26T19:08:18.293Z,3.97
2017-07-26T19:10:47.632Z,4.72
2017-07-26T19:13:17.648Z,4.25
2017-07-26T19:15:46.988Z,4.18
2017-07-26T19:18:16.337Z,4.15
2017-07-26T19:20:45.682Z,4.22
2017-07-26T19:23:14.998Z,3.70
2017-07-26T19:25:44.326Z,3.58
2017-07-26T19:28:13.657Z,4.70
2017-07-26T19:30:42.965Z,4.43
2017-07-26T19:33:13.055Z,4.43
2017-07-26T19:35:43.878Z,3.80
2017-07-26T19:38:14.715Z,3.80
2017-07-26T19:40:44.943Z,4.40
2017-07-26T19:43:14.269Z,4.95
2017-07-26T19:45:43.616Z,4.32
2017-07-26T19:48:12.951Z,4.60
2017-07-26T19:50:42.274Z,5.20
2017-07-26T19:53:11.605Z,4.85
2017-07-26T19:55:41.690Z,4.18
2017-07-26T19:58:11.072Z,4.15
2017-07-26T20:00:40.397Z,4.20
2017-07-26T20:03:10.564Z,4.68
2017-07-26T20:05:45.782Z,3.60
2017-07-26T20:08:15.918Z,4.00
2017-07-26T20:10:46.233Z,4.95
2017-07-26T20:13:15.560Z,4.07
2017-07-26T20:15:44.901Z,4.30
2017-07-26T20:18:14.984Z,4.60
2017-07-26T20:20:44.316Z,4.60
2017-07-26T20:23:14.488Z,5.70
2017-07-26T20:25:43.902Z,4.65
2017-07-26T20:28:13.276Z,4.93
2017-07-26T20:30:42.601Z,4.22
2017-07-26T20:33:11.953Z,4.32
2017-07-26T20:35:42.173Z,4.47
2017-07-26T20:38:12.394Z,4.20
2017-07-26T20:40:41.820Z,4.75
2017-07-26T20:43:11.160Z,4.25
2017-07-26T20:45:41.414Z,4.53
2017-07-26T20:48:10.720Z,5.07
2017-07-26T20:50:40.069Z,4.35
2017-07-26T20:53:09.389Z,4.60
2017-07-26T20:55:38.715Z,4.87
2017-07-26T20:58:08.027Z,5.00
2017-07-26T21:00:37.433Z,4.75
2017-07-26T21:03:06.806Z,4.35
2017-07-26T21:05:36.305Z,4.72
2017-07-26T21:08:05.600Z,5.45
2017-07-26T21:10:34.944Z,5.05
2017-07-26T21:13:05.386Z,4.97
2017-07-26T21:15:34.717Z,4.30
2017-07-26T21:18:04.819Z,4.62
2017-07-26T21:20:35.610Z,4.78
2017-07-26T21:23:05.759Z,4.35
2017-07-26T21:25:35.074Z,5.35
2017-07-26T21:28:05.165Z,5.55
2017-07-26T21:30:34.476Z,5.28
2017-07-26T21:33:03.805Z,5.72
2017-07-26T21:35:33.122Z,5.10
2017-07-26T21:38:03.281Z,5.28
2017-07-26T21:40:32.688Z,5.22
2017-07-26T21:43:02.033Z,5.10
2017-07-26T21:45:31.349Z,5.18
2017-07-26T21:48:01.526Z,4.65
2017-07-26T21:50:30.841Z,4.60
2017-07-26T21:53:00.250Z,5.43
2017-07-26T21:55:29.560Z,4.97
2017-07-26T21:57:58.902Z,5.25
2017-07-26T22:00:28.220Z,5.20
2017-07-26T22:02:57.628Z,5.28
2017-07-26T22:05:26.949Z,4.62
2017-07-26T22:07:57.088Z,5.12
2017-07-26T22:10:26.446Z,5.62
2017-07-26T22:12:55.777Z,4.50
2017-07-26T22:15:25.858Z,5.32
2017-07-26T22:17:55.205Z,4.68
2017-07-26T22:20:25.308Z,5.22
2017-07-26T22:22:55.513Z,5.70
2017-07-26T22:25:24.869Z,4.60
2017-07-26T22:27:54.175Z,5.03
2017-07-26T22:30:23.505Z,5.65
2017-07-26T22:32:52.806Z,5.90
2017-07-26T22:35:22.140Z,4.93
2017-07-26T22:37:51.443Z,4.85
2017-07-26T22:40:21.527Z,5.30
2017-07-26T22:42:50.829Z,5.10
2017-07-26T22:45:20.162Z,4.65
2017-07-26T22:47:50.241Z,5.78
2017-07-26T22:50:19.577Z,5.18
2017-07-26T22:52:48.947Z,5.25
2017-07-26T22:58:10.587Z,5.15
2017-07-26T23:00:39.926Z,5.80
2017-07-26T23:03:09.275Z,5.90
2017-07-26T23:05:38.941Z,5.78
2017-07-26T23:08:08.245Z,4.95
2017-07-26T23:10:38.364Z,5.93
2017-07-26T23:13:08.452Z,6.68
2017-07-26T23:15:37.778Z,4.75
2017-07-26T23:18:07.119Z,6.00
2017-07-26T23:20:36.453Z,5.75
2017-07-26T23:23:05.854Z,5.10
2017-07-26T23:25:35.205Z,5.90
2017-07-26T23:28:04.624Z,5.00
2017-07-26T23:30:33.938Z,5.90
2017-07-26T23:33:03.262Z,7.55
2017-07-26T23:35:32.564Z,5.90
2017-07-26T23:38:01.892Z,6.10
2017-07-26T23:40:31.201Z,6.32
2017-07-26T23:43:00.523Z,5.57
2017-07-26T23:45:30.621Z,5.15
2017-07-26T23:47:59.943Z,6.22
2017-07-26T23:50:29.257Z,5.37
2017-07-26T23:52:58.600Z,5.90
2017-07-26T23:55:27.934Z,6.22
2017-07-26T23:57:58.029Z,5.32
